Terminal Aerodrome Forecast
Issued by NWS

Home | Current Version | Previous Version | Text Only | Print | Product List | Glossary On
Versions: 1 2 3 4 5 6 7 8 9 10 11 12 13 14 15 16
413
FTUS46 KSTO 121741
TAFSCK
TAF
KSCK 121741Z 1218/1318 VRB03KT 4SM BR SCT250
     FM121900 VRB03KT P6SM SCT250
     FM130600 00000KT 3SM BR SCT250
     FM131000 00000KT 2SM BR SCT005
      TEMPO 1312/1316 1/2SM FG OVC002=

USA.gov is the U.S. government's official web portal to all federal, state and local government web resources and services.